Time;durP1;ratioP1;P1;durP2;ratioP2;P2;SDS_P1;SDS_P2;PMS_P1;PMS_P2;Temp;Humidity;BMP_temperature;BMP_pressure;BME280_temperature;BME280_humidity;BME280_pressure;Samples;Min_cycle;Max_cycle;Signal;HPM_P1;HPM_P2
2022/07/10 00:00:27;;;;;;;;;;;14.70;99.90;;;;;;5093827;28;20007;-62
2022/07/10 00:02:53;;;;;;;;;;;14.40;99.90;;;;;;5093870;28;20021;-64
2022/07/10 00:05:19;;;;;;;;;;;14.70;99.90;;;;;;5093762;28;20396;-65
2022/07/10 00:07:45;;;;;;;;;;;14.70;99.90;;;;;;5093012;28;19928;-66
2022/07/10 00:10:10;;;;;;;;;;;14.50;99.90;;;;;;5093943;28;19920;-65
2022/07/10 00:12:36;;;;;;;;;;;14.70;99.90;;;;;;5093662;28;19920;-65
2022/07/10 00:15:03;;;;;;;;;;;14.40;99.90;;;;;;5092375;28;20394;-65
2022/07/10 00:17:28;;;;;;;;;;;14.90;99.90;;;;;;5093767;28;19923;-65
2022/07/10 00:19:54;;;;;;;;;;;14.50;99.90;;;;;;5093512;28;19924;-66
2022/07/10 00:22:20;;;;;;;;;;;16.20;99.90;;;;;;5093406;28;20023;-67
2022/07/10 00:24:46;;;;;;;;;;;14.60;99.90;;;;;;5092389;28;19923;-68
2022/07/10 00:27:11;;;;;;;;;;;14.50;99.90;;;;;;5093288;28;19927;-66
2022/07/10 00:29:37;;;;;;;;;;;14.50;99.90;;;;;;5091706;28;19920;-65
2022/07/10 00:32:03;;;;;;;;;;;14.80;99.90;;;;;;5091431;28;19924;-64
2022/07/10 00:34:28;;;;;;;;;;;14.70;99.90;;;;;;5093108;28;19920;-64
2022/07/10 00:36:54;;;;;;;;;;;14.40;99.90;;;;;;5091892;28;19923;-64
2022/07/10 00:39:20;;;;;;;;;;;14.50;99.90;;;;;;5093128;28;20020;-66
2022/07/10 00:41:45;;;;;;;;;;;14.40;99.90;;;;;;5092822;28;19969;-65
2022/07/10 00:44:11;;;;;;;;;;;14.30;99.90;;;;;;5093098;28;19931;-67
2022/07/10 00:46:36;;;;;;;;;;;14.50;99.90;;;;;;5093045;28;20353;-66
2022/07/10 00:49:02;;;;;;;;;;;14.30;99.90;;;;;;5092959;28;19927;-66
2022/07/10 00:51:29;;;;;;;;;;;14.50;99.90;;;;;;5092617;28;19920;-65
2022/07/10 00:53:56;;;;;;;;;;;14.30;99.90;;;;;;5092881;28;19971;-64
2022/07/10 00:56:22;;;;;;;;;;;14.40;99.90;;;;;;5092912;28;19926;-65
2022/07/10 00:58:49;;;;;;;;;;;14.50;99.90;;;;;;5092859;28;19942;-65
2022/07/10 01:01:15;;;;;;;;;;;14.10;99.90;;;;;;5092842;28;20380;-65
2022/07/10 01:03:40;;;;;;;;;;;14.40;99.90;;;;;;5092690;28;20024;-65
2022/07/10 01:06:06;;;;;;;;;;;14.30;99.90;;;;;;5093073;28;20268;-65
2022/07/10 01:08:32;;;;;;;;;;;14.50;99.90;;;;;;5092680;28;20664;-65
2022/07/10 01:10:58;;;;;;;;;;;14.50;99.90;;;;;;5092666;28;19924;-64
2022/07/10 01:13:24;;;;;;;;;;;14.20;99.90;;;;;;5092556;28;19920;-67
2022/07/10 01:15:50;;;;;;;;;;;14.40;99.90;;;;;;5092244;28;20380;-65
2022/07/10 01:18:16;;;;;;;;;;;14.30;99.90;;;;;;5092562;28;19928;-65
2022/07/10 01:20:41;;;;;;;;;;;14.20;99.90;;;;;;5092522;28;19920;-66
2022/07/10 01:23:07;;;;;;;;;;;14.10;99.90;;;;;;5091550;28;20311;-65
2022/07/10 01:25:33;;;;;;;;;;;14.20;99.90;;;;;;5092522;28;19970;-64
2022/07/10 01:27:58;;;;;;;;;;;14.10;99.90;;;;;;5092477;28;20354;-66
2022/07/10 01:30:24;;;;;;;;;;;14.10;99.90;;;;;;5092467;28;19924;-65
2022/07/10 01:32:50;;;;;;;;;;;14.30;99.90;;;;;;5092485;28;19970;-64
2022/07/10 01:35:16;;;;;;;;;;;14.30;99.90;;;;;;5092390;28;19971;-65
2022/07/10 01:37:41;;;;;;;;;;;14.00;99.90;;;;;;5092425;28;20284;-64
2022/07/10 01:40:08;;;;;;;;;;;13.80;99.90;;;;;;5092594;28;19965;-64
2022/07/10 01:42:33;;;;;;;;;;;14.50;99.90;;;;;;5092386;28;19967;-65
2022/07/10 01:44:59;;;;;;;;;;;14.30;99.90;;;;;;5092368;28;19982;-65
2022/07/10 01:47:27;;;;;;;;;;;14.00;99.90;;;;;;5092313;28;20046;-64
2022/07/10 01:49:53;;;;;;;;;;;13.80;99.90;;;;;;5092236;28;19926;-65
2022/07/10 01:52:22;;;;;;;;;;;14.10;99.90;;;;;;5092137;28;19927;-65
2022/07/10 01:54:47;;;;;;;;;;;14.40;99.90;;;;;;5092143;28;19919;-63
2022/07/10 01:57:13;;;;;;;;;;;14.40;99.90;;;;;;5091887;28;19927;-65
2022/07/10 01:59:39;;;;;;;;;;;14.50;99.90;;;;;;5092234;28;19920;-65
2022/07/10 02:02:04;;;;;;;;;;;14.10;99.90;;;;;;5092105;28;19920;-63
2022/07/10 02:04:42;;;;;;;;;;;14.40;99.90;;;;;;5092151;28;20549;-64
2022/07/10 02:07:11;;;;;;;;;;;14.50;99.90;;;;;;5092232;28;19927;-64
2022/07/10 02:09:37;;;;;;;;;;;14.00;99.90;;;;;;5092354;28;19959;-65
2022/07/10 02:12:02;;;;;;;;;;;14.80;99.90;;;;;;5092215;28;19927;-65
2022/07/10 02:14:28;;;;;;;;;;;14.90;99.90;;;;;;5091961;28;19927;-64
2022/07/10 02:16:54;;;;;;;;;;;14.60;99.90;;;;;;5092018;28;20397;-64
2022/07/10 02:19:19;;;;;;;;;;;14.60;99.90;;;;;;5091959;28;19972;-65
2022/07/10 02:21:48;;;;;;;;;;;14.80;99.90;;;;;;5092016;28;20006;-65
2022/07/10 02:24:13;;;;;;;;;;;14.80;99.90;;;;;;5090637;28;20020;-66
2022/07/10 02:26:39;;;;;;;;;;;14.60;99.90;;;;;;5090949;28;19973;-65
2022/07/10 02:29:04;;;;;;;;;;;14.40;99.90;;;;;;5092186;28;19920;-64
2022/07/10 02:31:32;;;;;;;;;;;14.70;99.90;;;;;;5092585;28;19920;-65
2022/07/10 02:33:57;;;;;;;;;;;14.80;99.90;;;;;;5095213;28;20295;-66
2022/07/10 02:36:23;;;;;;;;;;;14.50;99.90;;;;;;5095479;28;19920;-66
2022/07/10 02:38:48;;;;;;;;;;;14.80;99.90;;;;;;5095495;28;20327;-64
2022/07/10 02:41:14;;;;;;;;;;;14.90;99.90;;;;;;5095377;28;20324;-65
2022/07/10 02:43:40;;;;;;;;;;;14.70;99.90;;;;;;5095321;28;19924;-64
2022/07/10 02:46:05;;;;;;;;;;;14.80;99.90;;;;;;5095315;28;19924;-65
2022/07/10 02:48:31;;;;;;;;;;;14.70;99.90;;;;;;5094052;28;19975;-65
2022/07/10 02:50:56;;;;;;;;;;;14.70;99.90;;;;;;5095239;28;19924;-66
2022/07/10 02:53:22;;;;;;;;;;;14.50;99.90;;;;;;5095142;28;19920;-66
2022/07/10 02:55:47;;;;;;;;;;;14.60;99.90;;;;;;5095387;28;19920;-64
2022/07/10 02:58:15;;;;;;;;;;;14.60;99.90;;;;;;5095379;28;19923;-66
2022/07/10 03:00:41;;;;;;;;;;;14.70;99.90;;;;;;5094033;28;19920;-65
2022/07/10 03:03:07;;;;;;;;;;;14.90;99.90;;;;;;5095061;28;19924;-67
2022/07/10 03:05:33;;;;;;;;;;;14.80;99.90;;;;;;5095003;28;20249;-64
2022/07/10 03:07:58;;;;;;;;;;;14.90;99.90;;;;;;5094870;28;19923;-65
2022/07/10 03:10:24;;;;;;;;;;;14.80;99.90;;;;;;5094827;28;20462;-64
2022/07/10 03:12:49;;;;;;;;;;;14.80;99.90;;;;;;5094828;28;19924;-64
2022/07/10 03:15:15;;;;;;;;;;;15.00;99.90;;;;;;5094634;28;20279;-64
2022/07/10 03:17:41;;;;;;;;;;;14.90;99.90;;;;;;5094721;28;19926;-64
2022/07/10 03:20:07;;;;;;;;;;;15.00;99.90;;;;;;5094906;28;20033;-64
2022/07/10 03:22:32;;;;;;;;;;;14.90;99.90;;;;;;5094598;28;19965;-64
2022/07/10 03:24:58;;;;;;;;;;;15.20;99.90;;;;;;5094590;28;20298;-64
2022/07/10 03:27:24;;;;;;;;;;;15.30;99.90;;;;;;5094492;28;19920;-64
2022/07/10 03:29:50;;;;;;;;;;;14.90;99.90;;;;;;5094460;28;19930;-64
2022/07/10 03:32:15;;;;;;;;;;;15.00;99.90;;;;;;5094271;28;19928;-64
2022/07/10 03:34:41;;;;;;;;;;;15.30;99.90;;;;;;5094278;28;19981;-65
2022/07/10 03:37:07;;;;;;;;;;;14.60;99.90;;;;;;5094569;28;19923;-65
2022/07/10 03:39:32;;;;;;;;;;;14.60;99.90;;;;;;5094232;28;19924;-65
2022/07/10 03:41:58;;;;;;;;;;;14.90;99.90;;;;;;5092780;28;19920;-65
2022/07/10 03:44:24;;;;;;;;;;;14.50;99.90;;;;;;5093194;28;19931;-65
2022/07/10 03:46:49;;;;;;;;;;;14.90;99.90;;;;;;5094042;28;19926;-64
2022/07/10 03:49:15;;;;;;;;;;;14.70;99.90;;;;;;5094303;28;19944;-65
2022/07/10 03:51:41;;;;;;;;;;;14.70;99.90;;;;;;5093967;28;20014;-65
2022/07/10 03:54:06;;;;;;;;;;;16.10;99.90;;;;;;5093482;28;19924;-64
2022/07/10 03:59:16;;;;;;;;;;;15.00;99.90;;;;;;5094053;28;19970;-66
2022/07/10 04:01:41;;;;;;;;;;;14.80;99.90;;;;;;5093150;28;19923;-65
2022/07/10 04:04:07;;;;;;;;;;;15.20;99.90;;;;;;5092874;28;19931;-66
2022/07/10 04:06:32;;;;;;;;;;;15.10;99.90;;;;;;5093571;28;19943;-65
2022/07/10 04:08:58;;;;;;;;;;;15.00;99.90;;;;;;5092437;28;19920;-64
2022/07/10 04:11:24;;;;;;;;;;;14.90;99.90;;;;;;5093657;28;19996;-64
2022/07/10 04:13:49;;;;;;;;;;;15.10;99.90;;;;;;5092266;28;19927;-64
2022/07/10 04:16:15;;;;;;;;;;;15.20;99.90;;;;;;5093478;28;20030;-66
2022/07/10 04:18:40;;;;;;;;;;;14.70;99.90;;;;;;5093539;28;19920;-64
2022/07/10 04:21:06;;;;;;;;;;;15.10;99.90;;;;;;5093824;28;19974;-64
2022/07/10 04:23:32;;;;;;;;;;;15.00;99.90;;;;;;5093401;28;19919;-64
2022/07/10 04:25:57;;;;;;;;;;;15.10;99.90;;;;;;5093364;28;19946;-65
2022/07/10 04:28:23;;;;;;;;;;;15.00;99.90;;;;;;5092116;28;19989;-64
2022/07/10 04:30:48;;;;;;;;;;;14.90;99.90;;;;;;5093276;28;19924;-65
2022/07/10 04:33:14;;;;;;;;;;;15.10;99.90;;;;;;5093044;28;19928;-66
2022/07/10 04:35:40;;;;;;;;;;;14.80;99.90;;;;;;5093182;28;19994;-65
2022/07/10 04:38:05;;;;;;;;;;;15.10;99.90;;;;;;5093198;28;19924;-64
2022/07/10 04:40:31;;;;;;;;;;;15.30;99.90;;;;;;5093133;28;19927;-66
2022/07/10 04:42:57;;;;;;;;;;;14.80;99.90;;;;;;5093080;28;20425;-65
2022/07/10 04:45:22;;;;;;;;;;;15.10;99.90;;;;;;5075114;28;19920;-65
2022/07/10 04:47:48;;;;;;;;;;;15.40;99.90;;;;;;5093060;28;19924;-66
2022/07/10 04:50:13;;;;;;;;;;;15.10;99.90;;;;;;5092950;28;20283;-65
2022/07/10 04:52:39;;;;;;;;;;;15.30;99.90;;;;;;5092930;28;19923;-63
2022/07/10 04:55:04;;;;;;;;;;;15.10;99.90;;;;;;5092181;28;19920;-65
2022/07/10 04:57:30;;;;;;;;;;;15.30;99.90;;;;;;5092851;28;19996;-64
2022/07/10 04:59:56;;;;;;;;;;;15.00;99.90;;;;;;5093066;28;20027;-65
2022/07/10 05:02:22;;;;;;;;;;;15.50;99.90;;;;;;5091809;28;19967;-62
2022/07/10 05:04:48;;;;;;;;;;;15.00;99.90;;;;;;5092449;28;20424;-65
2022/07/10 05:07:14;;;;;;;;;;;15.30;99.90;;;;;;5092740;28;20006;-67
2022/07/10 05:09:40;;;;;;;;;;;15.20;99.90;;;;;;5092954;28;19920;-64
2022/07/10 05:12:06;;;;;;;;;;;15.10;99.90;;;;;;5091374;28;19977;-64
2022/07/10 05:14:31;;;;;;;;;;;15.10;99.90;;;;;;5092580;28;19982;-64
2022/07/10 05:16:57;;;;;;;;;;;15.20;99.90;;;;;;5092583;28;19942;-64
2022/07/10 05:19:23;;;;;;;;;;;15.20;99.90;;;;;;5092567;28;19924;-64
2022/07/10 05:21:48;;;;;;;;;;;16.20;99.90;;;;;;5092525;28;19971;-65
2022/07/10 05:24:14;;;;;;;;;;;15.40;99.90;;;;;;5092129;28;19973;-66
2022/07/10 05:26:40;;;;;;;;;;;15.40;99.90;;;;;;5092164;28;20392;-66
2022/07/10 05:29:05;;;;;;;;;;;14.80;99.90;;;;;;5092483;28;19982;-66
2022/07/10 05:31:31;;;;;;;;;;;15.20;99.90;;;;;;5091119;28;20314;-64
2022/07/10 05:33:56;;;;;;;;;;;15.20;99.90;;;;;;5091962;28;20326;-64
2022/07/10 05:36:22;;;;;;;;;;;15.20;99.90;;;;;;5092361;28;20003;-66
2022/07/10 05:38:47;;;;;;;;;;;15.10;99.90;;;;;;5092140;28;19931;-65
2022/07/10 05:41:13;;;;;;;;;;;15.00;99.90;;;;;;5092366;28;19988;-66
2022/07/10 05:43:39;;;;;;;;;;;14.90;99.90;;;;;;5092056;28;19920;-64
2022/07/10 05:46:05;;;;;;;;;;;15.20;99.90;;;;;;5092334;28;19920;-64
2022/07/10 05:48:31;;;;;;;;;;;15.20;99.90;;;;;;5092336;28;19920;-65
2022/07/10 05:50:56;;;;;;;;;;;15.60;99.90;;;;;;5092513;28;20322;-64
2022/07/10 05:53:22;;;;;;;;;;;15.20;99.90;;;;;;5092271;28;19920;-65
2022/07/10 05:55:48;;;;;;;;;;;15.30;99.90;;;;;;5090924;28;19946;-65
2022/07/10 05:58:14;;;;;;;;;;;15.40;99.90;;;;;;5092157;28;19924;-64
2022/07/10 06:00:39;;;;;;;;;;;15.60;99.90;;;;;;5092151;28;19924;-64
2022/07/10 06:03:05;;;;;;;;;;;15.60;99.90;;;;;;5092057;28;20498;-65
2022/07/10 06:05:31;;;;;;;;;;;15.40;99.90;;;;;;5092123;28;19927;-65
2022/07/10 06:07:56;;;;;;;;;;;15.70;99.90;;;;;;5095628;28;20026;-64
2022/07/10 06:10:22;;;;;;;;;;;15.60;99.90;;;;;;5096010;28;19920;-64
2022/07/10 06:12:47;;;;;;;;;;;15.80;99.90;;;;;;5095888;28;19920;-64
2022/07/10 06:15:13;;;;;;;;;;;15.30;99.90;;;;;;5095859;28;19920;-65
2022/07/10 06:17:38;;;;;;;;;;;15.60;99.90;;;;;;5094808;28;20322;-66
2022/07/10 06:20:04;;;;;;;;;;;15.50;99.90;;;;;;5095798;28;19919;-65
2022/07/10 06:22:30;;;;;;;;;;;15.70;99.90;;;;;;5095713;28;20497;-65
2022/07/10 06:25:05;;;;;;;;;;;15.70;99.90;;;;;;5095672;28;19927;-66
2022/07/10 06:27:31;;;;;;;;;;;16.00;99.90;;;;;;5095749;28;20279;-66
2022/07/10 06:29:57;;;;;;;;;;;15.90;99.90;;;;;;5095604;28;19920;-64
2022/07/10 06:32:24;;;;;;;;;;;15.60;99.90;;;;;;5095625;28;19943;-65
2022/07/10 06:34:50;;;;;;;;;;;15.90;99.90;;;;;;5095409;28;19924;-65
2022/07/10 06:37:15;;;;;;;;;;;15.50;99.90;;;;;;5095454;28;19924;-64
2022/07/10 06:39:41;;;;;;;;;;;15.50;99.90;;;;;;5095424;28;19946;-64
2022/07/10 06:42:07;;;;;;;;;;;15.40;99.90;;;;;;5095399;28;20030;-64
2022/07/10 06:44:33;;;;;;;;;;;15.20;99.90;;;;;;5094306;28;19924;-64
2022/07/10 06:49:43;;;;;;;;;;;14.90;99.90;;;;;;5095299;28;19924;-64
2022/07/10 06:52:09;;;;;;;;;;;14.50;99.90;;;;;;5095142;28;19978;-64
2022/07/10 06:54:34;;;;;;;;;;;14.90;99.90;;;;;;5094980;28;19975;-66
2022/07/10 06:57:00;;;;;;;;;;;15.00;99.90;;;;;;5094727;28;19920;-64
2022/07/10 06:59:27;;;;;;;;;;;16.40;99.90;;;;;;5093972;28;19982;-64
2022/07/10 07:01:52;;;;;;;;;;;15.20;99.90;;;;;;5094948;28;19920;-64
2022/07/10 07:04:18;;;;;;;;;;;15.20;99.90;;;;;;5094925;28;20361;-65
2022/07/10 07:06:43;;;;;;;;;;;15.10;99.90;;;;;;5094817;28;19965;-66
2022/07/10 07:09:09;;;;;;;;;;;15.30;99.90;;;;;;5095041;28;20288;-65
2022/07/10 07:11:34;;;;;;;;;;;15.50;99.90;;;;;;5094842;28;19928;-65
2022/07/10 07:14:00;;;;;;;;;;;15.70;99.90;;;;;;5094662;28;19920;-65
2022/07/10 07:16:38;;;;;;;;;;;15.50;99.90;;;;;;5094664;28;20011;-65
2022/07/10 07:19:04;;;;;;;;;;;15.50;99.90;;;;;;5094573;28;20284;-65
2022/07/10 07:24:27;;;;;;;;;;;15.60;99.90;;;;;;5091999;28;19920;-65
2022/07/10 07:26:53;;;;;;;;;;;15.60;99.90;;;;;;5093476;28;19927;-64
2022/07/10 07:29:18;;;;;;;;;;;15.90;99.90;;;;;;5094403;28;20295;-64
2022/07/10 07:31:44;;;;;;;;;;;15.80;99.90;;;;;;5094321;28;19924;-63
2022/07/10 07:34:10;;;;;;;;;;;16.10;99.90;;;;;;5094343;28;20031;-67
2022/07/10 07:36:36;;;;;;;;;;;16.10;99.90;;;;;;5093321;28;19924;-64
2022/07/10 07:39:01;;;;;;;;;;;16.30;99.90;;;;;;5094313;28;19920;-65
2022/07/10 07:41:27;;;;;;;;;;;16.40;99.90;;;;;;5093562;28;19920;-62
2022/07/10 07:43:52;;;;;;;;;;;16.70;99.90;;;;;;5094545;28;20284;-64
2022/07/10 07:46:19;;;;;;;;;;;16.40;99.90;;;;;;5094193;28;19920;-65
2022/07/10 07:48:45;;;;;;;;;;;16.30;99.90;;;;;;5094200;28;20308;-66
2022/07/10 07:51:10;;;;;;;;;;;15.90;99.90;;;;;;5093008;28;20422;-66
2022/07/10 07:53:36;;;;;;;;;;;15.90;99.90;;;;;;5092682;28;20279;-64
2022/07/10 07:56:02;;;;;;;;;;;16.20;99.90;;;;;;5094187;28;19920;-64
2022/07/10 07:58:27;;;;;;;;;;;15.90;99.90;;;;;;5093935;28;19920;-64
2022/07/10 08:00:53;;;;;;;;;;;16.30;99.90;;;;;;5092899;28;19969;-65
2022/07/10 08:03:18;;;;;;;;;;;15.70;99.90;;;;;;5093569;28;19934;-65
2022/07/10 08:05:44;;;;;;;;;;;15.90;99.90;;;;;;5092781;28;19920;-67
2022/07/10 08:08:09;;;;;;;;;;;16.10;99.90;;;;;;5093759;28;20010;-62
2022/07/10 08:10:36;;;;;;;;;;;15.70;99.90;;;;;;5093703;28;20558;-65
2022/07/10 08:13:02;;;;;;;;;;;15.60;99.90;;;;;;5093677;28;19931;-64
2022/07/10 08:15:28;;;;;;;;;;;15.70;99.90;;;;;;5093539;28;19920;-65
2022/07/10 08:17:57;;;;;;;;;;;15.80;99.90;;;;;;5093562;28;19927;-64
2022/07/10 08:20:24;;;;;;;;;;;16.00;99.90;;;;;;5093486;28;19927;-64
2022/07/10 08:22:51;;;;;;;;;;;16.00;99.90;;;;;;5092230;28;20307;-64
2022/07/10 08:25:17;;;;;;;;;;;16.00;99.90;;;;;;5093340;28;19924;-65
2022/07/10 08:27:42;;;;;;;;;;;16.10;99.90;;;;;;5093445;28;19931;-64
2022/07/10 08:30:08;;;;;;;;;;;16.20;99.90;;;;;;5092765;28;19930;-65
2022/07/10 08:32:34;;;;;;;;;;;16.20;99.90;;;;;;5092906;28;20458;-64
2022/07/10 08:35:00;;;;;;;;;;;16.00;99.90;;;;;;5093247;28;19920;-63
2022/07/10 08:37:26;;;;;;;;;;;16.10;99.90;;;;;;5093256;28;20383;-65
2022/07/10 08:39:51;;;;;;;;;;;16.00;99.90;;;;;;5093193;28;19920;-64
2022/07/10 08:42:17;;;;;;;;;;;16.30;99.90;;;;;;5093165;28;20409;-64
2022/07/10 08:44:43;;;;;;;;;;;16.40;99.90;;;;;;5093108;28;19973;-64
2022/07/10 08:47:11;;;;;;;;;;;16.30;99.90;;;;;;5093382;28;19924;-64
2022/07/10 08:49:37;;;;;;;;;;;16.60;99.90;;;;;;5093039;28;19928;-64
2022/07/10 08:52:08;;;;;;;;;;;16.50;99.90;;;;;;5093009;28;19973;-64
2022/07/10 08:54:33;;;;;;;;;;;16.60;99.90;;;;;;5092913;28;19924;-64
2022/07/10 08:57:00;;;;;;;;;;;16.30;99.90;;;;;;5092958;28;19930;-62
2022/07/10 08:59:26;;;;;;;;;;;16.60;99.90;;;;;;5092872;28;20068;-63
2022/07/10 09:01:53;;;;;;;;;;;15.90;99.90;;;;;;5092861;28;19924;-63
2022/07/10 09:04:22;;;;;;;;;;;15.60;99.90;;;;;;5092818;28;20318;-63
2022/07/10 09:06:48;;;;;;;;;;;15.90;99.90;;;;;;5092803;28;19924;-62
2022/07/10 09:09:14;;;;;;;;;;;15.50;99.90;;;;;;5092757;28;20014;-61
2022/07/10 09:11:43;;;;;;;;;;;15.60;99.90;;;;;;5092724;28;19931;-62
2022/07/10 09:14:11;;;;;;;;;;;15.40;99.90;;;;;;5092642;28;20316;-62
2022/07/10 09:16:40;;;;;;;;;;;15.40;99.90;;;;;;5092716;28;20370;-62
2022/07/10 09:19:15;;;;;;;;;;;15.40;99.90;;;;;;5092689;28;19928;-62
2022/07/10 09:21:40;;;;;;;;;;;15.30;99.90;;;;;;5092296;28;20657;-61
2022/07/10 09:24:07;;;;;;;;;;;15.40;99.90;;;;;;5092644;28;19928;-65
2022/07/10 09:26:33;;;;;;;;;;;15.40;99.90;;;;;;5092606;28;19927;-62
2022/07/10 09:29:09;;;;;;;;;;;15.30;99.90;;;;;;5092535;28;19920;-63
2022/07/10 09:31:53;;;;;;;;;;;15.50;99.90;;;;;;5092546;28;19949;-62
2022/07/10 09:34:37;;;;;;;;;;;15.20;99.90;;;;;;5092833;28;20291;-62
2022/07/10 09:37:16;;;;;;;;;;;15.70;99.90;;;;;;5092790;28;20295;-63
2022/07/10 09:39:50;;;;;;;;;;;15.70;99.90;;;;;;5092810;28;19930;-63
2022/07/10 09:42:25;;;;;;;;;;;15.90;99.90;;;;;;5095314;28;19931;-63
2022/07/10 09:44:51;;;;;;;;;;;15.60;99.90;;;;;;5096566;28;19922;-62
2022/07/10 09:47:23;;;;;;;;;;;15.60;99.90;;;;;;5096499;28;20101;-62
2022/07/10 09:49:48;;;;;;;;;;;16.10;99.90;;;;;;5096477;28;19920;-61
2022/07/10 09:52:15;;;;;;;;;;;18.30;99.90;;;;;;5096465;28;19927;-62
2022/07/10 09:54:41;;;;;;;;;;;15.80;99.90;;;;;;5096323;28;20288;-62
2022/07/10 09:57:08;;;;;;;;;;;16.20;99.90;;;;;;5096320;28;20011;-61
2022/07/10 09:59:34;;;;;;;;;;;16.30;99.90;;;;;;5096356;28;20016;-62
2022/07/10 10:02:00;;;;;;;;;;;16.50;99.90;;;;;;5096271;28;20355;-63
2022/07/10 10:04:26;;;;;;;;;;;16.60;99.90;;;;;;5096231;28;19924;-62
2022/07/10 10:07:01;;;;;;;;;;;16.60;99.90;;;;;;5096209;28;19924;-63
2022/07/10 10:09:41;;;;;;;;;;;17.10;99.90;;;;;;5096176;28;19969;-64
2022/07/10 10:12:27;;;;;;;;;;;16.90;99.90;;;;;;5096223;28;20329;-62
2022/07/10 10:14:53;;;;;;;;;;;16.60;99.90;;;;;;5095427;28;19924;-62
2022/07/10 10:17:19;;;;;;;;;;;16.40;99.90;;;;;;5095950;28;19932;-62
2022/07/10 10:22:30;;;;;;;;;;;16.30;99.90;;;;;;5095885;28;19950;-63
2022/07/10 10:24:56;;;;;;;;;;;16.40;99.90;;;;;;5095840;28;19927;-62
2022/07/10 10:27:23;;;;;;;;;;;16.00;99.90;;;;;;5095774;28;19979;-63
2022/07/10 10:29:49;;;;;;;;;;;16.10;99.90;;;;;;5095738;28;19920;-62
2022/07/10 10:32:16;;;;;;;;;;;16.30;99.90;;;;;;5095459;28;19924;-64
2022/07/10 10:34:48;;;;;;;;;;;16.20;99.90;;;;;;5095262;28;20669;-62
2022/07/10 10:37:36;;;;;;;;;;;16.40;99.90;;;;;;5095346;28;20435;-62
2022/07/10 10:40:02;;;;;;;;;;;16.30;99.90;;;;;;5085198;28;20300;-62
2022/07/10 10:42:32;;;;;;;;;;;16.70;99.90;;;;;;5095579;28;20029;-63
2022/07/10 10:45:20;;;;;;;;;;;16.60;99.90;;;;;;5095447;28;19924;-63
2022/07/10 10:48:04;;;;;;;;;;;17.00;99.90;;;;;;5094955;28;19934;-63
2022/07/10 10:50:35;;;;;;;;;;;17.10;99.90;;;;;;5095423;28;19926;-61
2022/07/10 10:53:01;;;;;;;;;;;17.20;99.90;;;;;;5094756;28;19924;-64
2022/07/10 10:55:27;;;;;;;;;;;17.60;99.90;;;;;;5095181;28;19931;-62
2022/07/10 10:57:52;;;;;;;;;;;17.60;99.90;;;;;;5095242;28;19935;-63
2022/07/10 11:00:37;;;;;;;;;;;17.30;99.90;;;;;;5095186;28;19920;-62
2022/07/10 11:03:15;;;;;;;;;;;17.80;99.90;;;;;;5095166;28;19985;-64
2022/07/10 11:05:42;;;;;;;;;;;17.70;99.90;;;;;;5095093;28;19927;-62
2022/07/10 11:08:07;;;;;;;;;;;18.00;99.90;;;;;;5094974;28;19927;-64
2022/07/10 11:10:35;;;;;;;;;;;17.80;99.90;;;;;;5095025;28;19980;-63
2022/07/10 11:13:00;;;;;;;;;;;18.00;99.90;;;;;;5094920;28;19920;-62
2022/07/10 11:15:29;;;;;;;;;;;17.70;99.90;;;;;;5094804;28;20455;-62
2022/07/10 11:18:05;;;;;;;;;;;17.90;99.90;;;;;;5094783;28;19920;-63
2022/07/10 11:20:32;;;;;;;;;;;18.00;99.90;;;;;;5094877;28;20292;-62
2022/07/10 11:23:10;;;;;;;;;;;18.00;99.90;;;;;;5094845;28;20410;-63
2022/07/10 11:25:42;;;;;;;;;;;17.90;99.90;;;;;;5094876;28;19923;-62
2022/07/10 11:28:09;;;;;;;;;;;17.50;99.90;;;;;;5094886;28;19920;-62
2022/07/10 11:30:42;;;;;;;;;;;17.40;99.90;;;;;;5094359;28;20398;-63
2022/07/10 11:33:08;;;;;;;;;;;17.60;99.90;;;;;;5094113;28;20046;-65
2022/07/10 11:35:34;;;;;;;;;;;17.60;99.90;;;;;;5094331;28;20366;-62
2022/07/10 11:37:59;;;;;;;;;;;17.40;99.90;;;;;;5094183;28;19927;-64
2022/07/10 11:40:25;;;;;;;;;;;17.90;99.90;;;;;;5094383;28;19935;-63
2022/07/10 11:42:51;;;;;;;;;;;18.10;99.90;;;;;;5094336;28;19920;-63
2022/07/10 11:45:30;;;;;;;;;;;18.20;99.90;;;;;;5094197;28;19920;-62
2022/07/10 11:47:57;;;;;;;;;;;18.50;99.90;;;;;;5094198;28;19932;-62
2022/07/10 11:50:22;;;;;;;;;;;18.20;99.90;;;;;;5094190;28;19931;-63
2022/07/10 11:52:49;;;;;;;;;;;18.20;99.90;;;;;;5093865;28;19924;-66
2022/07/10 11:55:19;;;;;;;;;;;18.10;99.90;;;;;;5094058;28;19928;-63
2022/07/10 11:57:48;;;;;;;;;;;17.80;99.90;;;;;;5092849;28;19970;-62
2022/07/10 12:00:29;;;;;;;;;;;18.30;99.90;;;;;;5094044;28;19924;-61
2022/07/10 12:02:55;;;;;;;;;;;18.10;99.90;;;;;;5094018;28;20014;-62
2022/07/10 12:05:34;;;;;;;;;;;17.90;99.90;;;;;;5093016;28;19920;-61
2022/07/10 12:08:00;;;;;;;;;;;17.70;99.90;;;;;;5093918;28;19927;-62
2022/07/10 12:10:26;;;;;;;;;;;17.50;99.90;;;;;;5093876;28;19928;-63
2022/07/10 12:12:52;;;;;;;;;;;17.80;99.90;;;;;;5093814;28;20002;-63
2022/07/10 12:15:30;;;;;;;;;;;18.00;99.90;;;;;;5092074;28;20006;-62
2022/07/10 12:17:55;;;;;;;;;;;17.40;99.90;;;;;;5093606;28;20551;-64
2022/07/10 12:20:21;;;;;;;;;;;17.80;99.90;;;;;;5092381;28;19931;-63
2022/07/10 12:22:47;;;;;;;;;;;17.50;99.90;;;;;;5093627;28;20314;-63
2022/07/10 12:25:12;;;;;;;;;;;17.00;99.90;;;;;;5093183;28;19967;-63
2022/07/10 12:27:38;;;;;;;;;;;17.40;99.90;;;;;;5093557;28;19958;-63
2022/07/10 12:30:04;;;;;;;;;;;17.30;99.90;;;;;;5093472;28;20290;-63
2022/07/10 12:32:29;;;;;;;;;;;17.30;99.90;;;;;;5093285;28;19927;-62
2022/07/10 12:34:58;;;;;;;;;;;18.00;99.90;;;;;;5093319;28;20277;-63
2022/07/10 12:37:23;;;;;;;;;;;17.00;99.90;;;;;;5093279;28;19939;-65
2022/07/10 12:39:53;;;;;;;;;;;17.00;99.90;;;;;;5092955;28;20280;-63
2022/07/10 12:42:29;;;;;;;;;;;17.10;99.90;;;;;;5093186;28;20034;-63
2022/07/10 12:44:54;;;;;;;;;;;17.30;99.90;;;;;;5093421;28;19949;-63
2022/07/10 12:47:21;;;;;;;;;;;17.20;99.90;;;;;;5093132;28;19920;-64
2022/07/10 12:49:49;;;;;;;;;;;17.40;99.90;;;;;;5092830;28;20398;-63
2022/07/10 12:52:25;;;;;;;;;;;17.30;99.90;;;;;;5093077;28;19924;-64
2022/07/10 12:55:10;;;;;;;;;;;17.30;99.90;;;;;;5092952;28;19927;-63
2022/07/10 12:57:51;;;;;;;;;;;17.50;99.90;;;;;;5091404;28;19938;-63
2022/07/10 13:00:20;;;;;;;;;;;17.20;99.90;;;;;;5092959;28;19926;-63
2022/07/10 13:02:50;;;;;;;;;;;17.60;99.90;;;;;;5092900;28;19924;-64
2022/07/10 13:05:28;;;;;;;;;;;17.80;99.90;;;;;;5092917;28;19927;-64
2022/07/10 13:08:05;;;;;;;;;;;18.20;99.90;;;;;;5092898;28;19924;-64
2022/07/10 13:10:30;;;;;;;;;;;16.70;99.90;;;;;;5092845;28;19920;-63
2022/07/10 13:12:56;;;;;;;;;;;18.10;99.90;;;;;;5092808;28;20285;-63
2022/07/10 13:15:22;;;;;;;;;;;18.30;99.90;;;;;;5092549;28;19965;-62
2022/07/10 13:17:48;;;;;;;;;;;18.40;99.90;;;;;;5093080;28;19966;-62
2022/07/10 13:20:14;;;;;;;;;;;18.30;99.90;;;;;;5092802;28;19920;-62
2022/07/10 13:22:40;;;;;;;;;;;18.40;99.90;;;;;;5092674;28;19931;-63
2022/07/10 13:25:05;;;;;;;;;;;18.70;99.90;;;;;;5092597;28;19923;-63
2022/07/10 13:27:32;;;;;;;;;;;18.60;99.90;;;;;;5092594;28;19919;-62
2022/07/10 13:29:57;;;;;;;;;;;19.00;99.90;;;;;;5092566;28;19919;-63
2022/07/10 13:32:23;;;;;;;;;;;19.60;99.90;;;;;;5092231;28;19965;-62
2022/07/10 13:34:48;;;;;;;;;;;19.50;99.90;;;;;;5092479;28;19924;-63
2022/07/10 13:37:14;;;;;;;;;;;19.50;99.90;;;;;;5092520;28;19924;-63
2022/07/10 13:39:40;;;;;;;;;;;19.50;99.90;;;;;;5092520;28;20714;-63
2022/07/10 13:42:05;;;;;;;;;;;19.90;99.90;;;;;;5092524;28;19928;-64
2022/07/10 13:44:31;;;;;;;;;;;19.60;99.90;;;;;;5092504;28;19920;-63
2022/07/10 13:46:57;;;;;;;;;;;19.80;99.90;;;;;;5091226;28;19934;-63
2022/07/10 13:49:22;;;;;;;;;;;20.30;99.90;;;;;;5092424;28;19920;-64
2022/07/10 13:51:48;;;;;;;;;;;19.90;99.90;;;;;;5092417;28;20279;-63
2022/07/10 13:54:14;;;;;;;;;;;20.20;99.90;;;;;;5092306;28;19920;-62
2022/07/10 13:56:40;;;;;;;;;;;20.30;99.90;;;;;;5092381;28;19998;-65
2022/07/10 13:59:06;;;;;;;;;;;20.10;99.90;;;;;;5092319;28;20044;-63
2022/07/10 14:01:31;;;;;;;;;;;20.00;99.90;;;;;;5092343;28;20375;-63
2022/07/10 14:03:57;;;;;;;;;;;19.50;99.90;;;;;;5091001;28;19931;-63
2022/07/10 14:06:23;;;;;;;;;;;19.80;99.90;;;;;;5092236;28;19973;-62
2022/07/10 14:08:48;;;;;;;;;;;19.60;99.90;;;;;;5092308;28;19920;-63
2022/07/10 14:11:14;;;;;;;;;;;19.60;99.90;;;;;;5092143;28;19920;-62
2022/07/10 14:13:39;;;;;;;;;;;20.00;99.90;;;;;;5091813;28;19924;-62
2022/07/10 14:16:05;;;;;;;;;;;19.30;99.90;;;;;;5092211;28;19979;-64
2022/07/10 14:19:04;;;;;;;;;;;19.70;99.90;;;;;;5091133;28;19927;-61
2022/07/10 14:21:27;;;;;;;;;;;19.50;99.90;;;;;;5090842;28;19920;-62
2022/07/10 14:23:52;;;;;;;;;;;19.40;99.90;;;;;;5092085;28;19920;-62
2022/07/10 14:26:18;;;;;;;;;;;19.20;99.90;;;;;;5092045;28;19977;-62